Time;durP1;ratioP1;P1;durP2;ratioP2;P2;SDS_P1;SDS_P2;PMS_P1;PMS_P2;Temp;Humidity;BMP_temperature;BMP_pressure;BME280_temperature;BME280_humidity;BME280_pressure;Samples;Min_cycle;Max_cycle;Signal;HPM_P1;HPM_P2
2021/04/04 00:01:00;;;;;;;;;;;18.70;60.30;;;;;;5047872;28;19920;-74
2021/04/04 00:03:25;;;;;;;;;;;18.60;60.20;;;;;;5036066;28;19920;-75
2021/04/04 00:05:51;;;;;;;;;;;18.70;60.30;;;;;;5056102;28;19924;-75
2021/04/04 00:08:16;;;;;;;;;;;18.70;60.30;;;;;;5052934;28;20321;-76
2021/04/04 00:10:46;;;;;;;;;;;18.70;60.20;;;;;;5034713;28;19957;-76
2021/04/04 00:13:12;;;;;;;;;;;18.70;60.30;;;;;;5046240;28;19913;-75
2021/04/04 00:15:40;;;;;;;;;;;18.70;60.30;;;;;;5032875;28;19920;-74
2021/04/04 00:18:06;;;;;;;;;;;18.60;60.30;;;;;;5050877;28;19932;-75
2021/04/04 00:20:32;;;;;;;;;;;18.70;60.30;;;;;;5023801;28;19960;-75
2021/04/04 00:22:57;;;;;;;;;;;18.60;60.30;;;;;;5048114;28;19990;-75
2021/04/04 00:25:23;;;;;;;;;;;18.60;60.30;;;;;;5049611;28;20380;-75
2021/04/04 00:27:48;;;;;;;;;;;18.60;60.30;;;;;;5054361;28;20370;-75
2021/04/04 00:30:16;;;;;;;;;;;18.60;60.30;;;;;;5051631;28;19913;-75
2021/04/04 00:32:41;;;;;;;;;;;18.60;60.30;;;;;;5034579;28;20003;-75
2021/04/04 00:35:08;;;;;;;;;;;18.60;60.40;;;;;;5053121;28;19974;-76
2021/04/04 00:37:34;;;;;;;;;;;18.60;60.30;;;;;;5032949;28;20424;-75
2021/04/04 00:40:26;;;;;;;;;;;18.60;60.30;;;;;;5041765;28;20018;-75
2021/04/04 00:42:52;;;;;;;;;;;18.60;60.30;;;;;;5043952;28;20024;-75
2021/04/04 00:45:19;;;;;;;;;;;18.60;60.30;;;;;;5034465;28;20378;-76
2021/04/04 00:47:45;;;;;;;;;;;18.60;60.40;;;;;;5050581;28;19912;-75
2021/04/04 00:50:11;;;;;;;;;;;18.60;60.40;;;;;;5050402;28;19920;-75
2021/04/04 00:52:37;;;;;;;;;;;18.50;60.40;;;;;;5045049;28;20412;-75
2021/04/04 00:55:04;;;;;;;;;;;18.60;60.40;;;;;;5048385;28;20020;-75
2021/04/04 00:57:30;;;;;;;;;;;18.60;60.40;;;;;;5050289;28;19917;-75
2021/04/04 00:59:56;;;;;;;;;;;18.60;60.40;;;;;;5031526;28;19917;-75
2021/04/04 01:02:22;;;;;;;;;;;18.50;60.40;;;;;;5033965;28;19967;-75
2021/04/04 01:04:49;;;;;;;;;;;18.60;60.40;;;;;;5025601;28;20321;-75
2021/04/04 01:07:15;;;;;;;;;;;18.60;60.40;;;;;;5034446;28;19920;-75
2021/04/04 01:09:41;;;;;;;;;;;18.60;60.40;;;;;;5032607;28;19913;-75
2021/04/04 01:12:12;;;;;;;;;;;18.50;60.40;;;;;;5048150;28;19958;-74
2021/04/04 01:14:41;;;;;;;;;;;18.60;60.40;;;;;;5035954;28;19912;-74
2021/04/04 01:17:07;;;;;;;;;;;18.50;60.40;;;;;;5019169;28;19924;-75
2021/04/04 01:19:42;;;;;;;;;;;18.50;60.40;;;;;;5035438;28;19928;-75
2021/04/04 01:22:29;;;;;;;;;;;18.50;60.40;;;;;;5050250;28;19913;-74
2021/04/04 01:25:05;;;;;;;;;;;18.50;60.50;;;;;;5050663;28;20358;-75
2021/04/04 01:28:06;;;;;;;;;;;18.50;60.50;;;;;;5048100;28;19921;-75
2021/04/04 01:30:32;;;;;;;;;;;18.50;60.50;;;;;;4988456;28;19933;-75
2021/04/04 01:32:59;;;;;;;;;;;18.50;60.50;;;;;;5033061;28;19913;-74
2021/04/04 01:35:27;;;;;;;;;;;18.50;60.50;;;;;;5047987;28;20445;-75
2021/04/04 01:37:53;;;;;;;;;;;18.50;60.50;;;;;;5048430;28;19974;-75
2021/04/04 01:40:20;;;;;;;;;;;18.50;60.50;;;;;;5049442;28;19925;-75
2021/04/04 01:42:46;;;;;;;;;;;18.50;60.50;;;;;;5036131;28;19921;-75
2021/04/04 01:45:12;;;;;;;;;;;18.50;60.50;;;;;;5048766;28;19971;-75
2021/04/04 01:47:39;;;;;;;;;;;18.50;60.50;;;;;;5031700;28;19944;-75
2021/04/04 01:50:05;;;;;;;;;;;18.50;60.50;;;;;;5050503;28;20244;-75
2021/04/04 01:52:31;;;;;;;;;;;18.50;60.50;;;;;;5050756;28;19919;-75
2021/04/04 01:54:58;;;;;;;;;;;18.50;60.50;;;;;;5047595;28;20425;-75
2021/04/04 01:57:25;;;;;;;;;;;18.50;60.50;;;;;;5042216;28;19917;-74
2021/04/04 01:59:51;;;;;;;;;;;18.50;60.50;;;;;;5024832;28;19925;-75
2021/04/04 02:02:17;;;;;;;;;;;18.50;60.60;;;;;;5049259;28;20004;-76
2021/04/04 02:04:43;;;;;;;;;;;18.50;60.50;;;;;;5025187;28;19917;-75
2021/04/04 02:07:09;;;;;;;;;;;18.50;60.60;;;;;;5048836;28;19921;-75
2021/04/04 02:09:35;;;;;;;;;;;18.50;60.60;;;;;;5046518;28;20374;-75
2021/04/04 02:12:01;;;;;;;;;;;18.50;60.60;;;;;;5026536;28;19912;-74
2021/04/04 02:14:27;;;;;;;;;;;18.50;60.60;;;;;;5042214;28;19966;-74
2021/04/04 02:16:54;;;;;;;;;;;18.50;60.60;;;;;;5031010;28;19924;-75
2021/04/04 02:19:22;;;;;;;;;;;18.50;60.60;;;;;;5044916;28;19916;-74
2021/04/04 02:21:49;;;;;;;;;;;18.50;60.60;;;;;;5044316;28;19913;-76
2021/04/04 02:24:15;;;;;;;;;;;18.40;60.60;;;;;;5048136;28;19920;-75
2021/04/04 02:26:41;;;;;;;;;;;18.40;60.60;;;;;;5045997;28;19913;-75
2021/04/04 02:29:06;;;;;;;;;;;18.40;60.60;;;;;;5050463;28;19913;-75
2021/04/04 02:31:35;;;;;;;;;;;18.40;60.60;;;;;;5034308;28;19920;-75
2021/04/04 02:34:02;;;;;;;;;;;18.40;60.60;;;;;;5031760;28;20361;-74
2021/04/04 02:36:28;;;;;;;;;;;18.40;60.60;;;;;;5044585;28;19919;-74
2021/04/04 02:38:59;;;;;;;;;;;18.40;60.60;;;;;;5046246;28;20270;-75
2021/04/04 02:41:25;;;;;;;;;;;18.40;60.70;;;;;;5060048;28;19932;-75
2021/04/04 02:43:52;;;;;;;;;;;18.40;60.60;;;;;;5049565;28;19929;-74
2021/04/04 02:46:20;;;;;;;;;;;18.40;60.70;;;;;;5031340;28;20277;-75
2021/04/04 02:48:57;;;;;;;;;;;18.40;60.70;;;;;;5047160;28;19916;-74
2021/04/04 02:51:29;;;;;;;;;;;18.40;60.70;;;;;;5035468;28;19920;-74
2021/04/04 02:53:55;;;;;;;;;;;18.40;60.70;;;;;;5031239;28;19912;-74
2021/04/04 02:56:22;;;;;;;;;;;18.40;60.70;;;;;;5023188;28;20452;-74
2021/04/04 02:58:49;;;;;;;;;;;18.40;60.70;;;;;;5047259;28;19924;-75
2021/04/04 03:01:16;;;;;;;;;;;18.40;60.70;;;;;;5034945;28;19924;-74
2021/04/04 03:03:42;;;;;;;;;;;18.40;60.70;;;;;;5053550;28;19913;-74
2021/04/04 03:06:08;;;;;;;;;;;18.40;60.70;;;;;;5055909;28;19912;-75
2021/04/04 03:08:40;;;;;;;;;;;18.40;60.60;;;;;;5028160;28;20382;-75
2021/04/04 03:11:07;;;;;;;;;;;18.40;60.70;;;;;;5049321;28;19913;-75
2021/04/04 03:13:32;;;;;;;;;;;18.40;60.70;;;;;;5047280;28;19913;-75
2021/04/04 03:15:58;;;;;;;;;;;18.30;60.70;;;;;;5062395;28;20435;-74
2021/04/04 03:18:25;;;;;;;;;;;18.40;60.70;;;;;;5028870;28;20375;-75
2021/04/04 03:20:51;;;;;;;;;;;18.30;60.70;;;;;;5023474;28;19921;-75
2021/04/04 03:23:17;;;;;;;;;;;18.40;60.70;;;;;;5033910;28;19917;-76
2021/04/04 03:25:47;;;;;;;;;;;18.40;60.70;;;;;;5034698;28;19927;-76
2021/04/04 03:28:17;;;;;;;;;;;18.30;60.80;;;;;;5045245;28;19912;-75
2021/04/04 03:30:46;;;;;;;;;;;18.30;60.70;;;;;;5065321;28;19919;-75
2021/04/04 03:33:13;;;;;;;;;;;18.30;60.80;;;;;;5062769;28;20440;-76
2021/04/04 03:35:39;;;;;;;;;;;18.30;60.70;;;;;;5047313;28;20305;-74
2021/04/04 03:38:06;;;;;;;;;;;18.30;60.80;;;;;;5051723;28;19917;-75
2021/04/04 03:40:32;;;;;;;;;;;18.30;60.70;;;;;;5034192;28;20011;-75
2021/04/04 03:42:59;;;;;;;;;;;18.30;60.80;;;;;;5064573;28;20023;-74
2021/04/04 03:45:25;;;;;;;;;;;18.40;60.80;;;;;;5045192;28;19913;-74
2021/04/04 03:47:51;;;;;;;;;;;18.30;60.80;;;;;;5048906;28;19913;-75
2021/04/04 03:50:17;;;;;;;;;;;18.30;60.80;;;;;;5050035;28;19920;-77
2021/04/04 03:52:43;;;;;;;;;;;18.30;60.80;;;;;;5052618;28;20003;-75
2021/04/04 03:55:17;;;;;;;;;;;18.30;60.80;;;;;;5047508;28;19913;-75
2021/04/04 03:57:43;;;;;;;;;;;18.30;60.80;;;;;;5060940;28;19978;-75
2021/04/04 04:00:09;;;;;;;;;;;18.30;60.80;;;;;;5048484;28;20319;-75
2021/04/04 04:02:35;;;;;;;;;;;18.30;60.80;;;;;;5046529;28;19913;-74
2021/04/04 04:05:02;;;;;;;;;;;18.30;60.80;;;;;;5037269;28;19913;-74
2021/04/04 04:07:28;;;;;;;;;;;18.30;60.90;;;;;;5050512;28;20043;-75
2021/04/04 04:09:54;;;;;;;;;;;18.30;60.90;;;;;;5047525;28;19931;-74
2021/04/04 04:12:20;;;;;;;;;;;18.30;60.80;;;;;;5052173;28;19921;-75
2021/04/04 04:14:46;;;;;;;;;;;18.30;60.90;;;;;;5050706;28;19936;-75
2021/04/04 04:17:12;;;;;;;;;;;18.30;60.80;;;;;;5035150;28;19960;-74
2021/04/04 04:19:48;;;;;;;;;;;18.30;60.90;;;;;;5033519;28;19960;-75
2021/04/04 04:22:13;;;;;;;;;;;18.30;60.90;;;;;;5029205;28;20011;-75
2021/04/04 04:24:39;;;;;;;;;;;18.30;60.90;;;;;;5056173;28;20418;-75
2021/04/04 04:27:04;;;;;;;;;;;18.30;60.90;;;;;;5038496;28;19944;-75
2021/04/04 04:29:30;;;;;;;;;;;18.30;60.90;;;;;;5043216;28;20359;-75
2021/04/04 04:31:57;;;;;;;;;;;18.30;60.90;;;;;;5044527;28;19996;-76
2021/04/04 04:34:23;;;;;;;;;;;18.30;60.80;;;;;;5033994;28;19920;-75
2021/04/04 04:36:51;;;;;;;;;;;18.30;60.90;;;;;;5051402;28;19912;-75
2021/04/04 04:39:17;;;;;;;;;;;18.30;60.90;;;;;;5028337;28;19928;-75
2021/04/04 04:41:44;;;;;;;;;;;18.30;60.90;;;;;;5033021;28;19913;-75
2021/04/04 04:44:11;;;;;;;;;;;18.30;60.90;;;;;;5034530;28;20275;-74
2021/04/04 04:46:37;;;;;;;;;;;18.30;60.90;;;;;;5030698;28;19913;-74
2021/04/04 04:49:05;;;;;;;;;;;18.30;60.90;;;;;;5042686;28;20054;-75
2021/04/04 04:51:31;;;;;;;;;;;18.30;60.80;;;;;;5030431;28;19912;-75
2021/04/04 04:53:56;;;;;;;;;;;18.30;60.90;;;;;;5045377;28;20301;-74
2021/04/04 04:56:22;;;;;;;;;;;18.30;60.90;;;;;;5033783;28;20007;-75
2021/04/04 04:58:47;;;;;;;;;;;18.30;60.90;;;;;;5032761;28;19932;-76
2021/04/04 05:01:15;;;;;;;;;;;18.30;60.90;;;;;;5061781;28;19971;-76
2021/04/04 05:03:40;;;;;;;;;;;18.30;60.90;;;;;;5022531;28;19913;-75
2021/04/04 05:06:08;;;;;;;;;;;18.30;60.90;;;;;;5022494;28;19913;-74
2021/04/04 05:08:34;;;;;;;;;;;18.30;60.80;;;;;;5035301;28;19956;-75
2021/04/04 05:11:03;;;;;;;;;;;18.30;60.90;;;;;;5047009;28;20428;-74
2021/04/04 05:13:30;;;;;;;;;;;18.20;60.90;;;;;;5035113;28;19913;-75
2021/04/04 05:15:55;;;;;;;;;;;18.30;60.90;;;;;;5051192;28;19960;-75
2021/04/04 05:18:21;;;;;;;;;;;18.30;60.90;;;;;;5024303;28;19944;-76
2021/04/04 05:20:47;;;;;;;;;;;18.30;60.90;;;;;;5022337;28;20324;-76
2021/04/04 05:23:23;;;;;;;;;;;18.30;60.90;;;;;;5038183;28;19919;-76
2021/04/04 05:25:49;;;;;;;;;;;18.30;60.90;;;;;;5034187;28;20000;-76
2021/04/04 05:28:19;;;;;;;;;;;18.30;60.80;;;;;;5032113;28;19967;-75
2021/04/04 05:30:45;;;;;;;;;;;18.30;60.80;;;;;;5027502;28;20317;-75
2021/04/04 05:33:11;;;;;;;;;;;18.30;60.80;;;;;;5019285;28;19913;-75
2021/04/04 05:35:40;;;;;;;;;;;18.30;60.80;;;;;;5023830;28;19916;-74
2021/04/04 05:38:07;;;;;;;;;;;18.30;60.80;;;;;;5020643;28;19917;-76
2021/04/04 05:40:33;;;;;;;;;;;18.30;60.80;;;;;;5051128;28;19917;-76
2021/04/04 05:43:00;;;;;;;;;;;18.30;60.80;;;;;;5033302;28;19970;-75
2021/04/04 05:45:36;;;;;;;;;;;18.30;60.80;;;;;;5051548;28;20004;-75
2021/04/04 05:48:20;;;;;;;;;;;18.30;60.80;;;;;;5022685;28;20384;-76
2021/04/04 05:50:52;;;;;;;;;;;18.30;60.80;;;;;;5053304;28;19967;-75
2021/04/04 05:53:23;;;;;;;;;;;18.30;60.80;;;;;;5034366;28;20282;-76
2021/04/04 05:55:58;;;;;;;;;;;18.30;60.70;;;;;;5066736;28;20397;-75
2021/04/04 05:58:30;;;;;;;;;;;18.30;60.70;;;;;;5048366;28;19921;-76
2021/04/04 06:00:57;;;;;;;;;;;18.30;60.70;;;;;;5050430;28;19998;-75
2021/04/04 06:03:46;;;;;;;;;;;18.30;60.70;;;;;;5031415;28;19912;-76
2021/04/04 06:06:30;;;;;;;;;;;18.30;60.70;;;;;;5015673;28;19919;-75
2021/04/04 06:09:14;;;;;;;;;;;18.30;60.70;;;;;;5043907;28;19917;-75
2021/04/04 06:12:02;;;;;;;;;;;18.30;60.70;;;;;;5058574;28;20400;-78
2021/04/04 06:14:41;;;;;;;;;;;18.30;60.70;;;;;;5043697;28;19924;-75
2021/04/04 06:17:16;;;;;;;;;;;18.30;60.60;;;;;;5039821;28;19913;-76
2021/04/04 06:19:55;;;;;;;;;;;18.30;60.60;;;;;;5030993;28;19917;-76
2021/04/04 06:22:28;;;;;;;;;;;18.30;60.70;;;;;;5046527;28;19919;-76
2021/04/04 06:24:54;;;;;;;;;;;18.30;60.60;;;;;;5047134;28;20011;-76
2021/04/04 06:27:25;;;;;;;;;;;18.30;60.60;;;;;;5050529;28;20058;-76
2021/04/04 06:30:02;;;;;;;;;;;18.30;60.60;;;;;;5047445;28;20371;-76
2021/04/04 06:32:28;;;;;;;;;;;18.30;60.60;;;;;;5049954;28;19920;-77
2021/04/04 06:34:55;;;;;;;;;;;18.30;60.50;;;;;;5042831;28;19920;-75
2021/04/04 06:37:45;;;;;;;;;;;18.30;60.50;;;;;;5031360;28;20011;-76
2021/04/04 06:40:18;;;;;;;;;;;18.30;60.60;;;;;;5047637;28;20340;-76
2021/04/04 06:42:56;;;;;;;;;;;18.30;60.50;;;;;;5036054;28;19962;-76
2021/04/04 06:45:34;;;;;;;;;;;18.30;60.50;;;;;;5056129;28;19913;-78
2021/04/04 06:47:59;;;;;;;;;;;18.30;60.60;;;;;;5051265;28;19956;-76
2021/04/04 06:50:30;;;;;;;;;;;18.30;60.50;;;;;;5035018;28;19957;-76
2021/04/04 06:53:13;;;;;;;;;;;18.30;60.50;;;;;;5027785;28;19912;-76
2021/04/04 06:55:45;;;;;;;;;;;18.30;60.50;;;;;;5064086;28;19916;-76
2021/04/04 06:58:29;;;;;;;;;;;18.30;60.50;;;;;;5066603;28;20015;-74
2021/04/04 07:01:11;;;;;;;;;;;18.30;60.40;;;;;;5062485;28;19917;-74
2021/04/04 07:03:56;;;;;;;;;;;18.30;60.40;;;;;;5063194;28;19952;-75
2021/04/04 07:06:25;;;;;;;;;;;18.30;60.40;;;;;;5043475;28;19916;-76
2021/04/04 07:09:11;;;;;;;;;;;18.30;60.40;;;;;;5048976;28;19916;-76
2021/04/04 07:11:51;;;;;;;;;;;18.30;60.40;;;;;;5026347;28;20400;-75
2021/04/04 07:14:35;;;;;;;;;;;18.40;60.40;;;;;;5048390;28;19913;-75
2021/04/04 07:17:19;;;;;;;;;;;18.40;60.40;;;;;;5055390;28;19920;-75
2021/04/04 07:19:53;;;;;;;;;;;18.30;60.40;;;;;;5041626;28;19940;-76
2021/04/04 07:22:28;;;;;;;;;;;18.40;60.30;;;;;;5043803;28;19920;-75
2021/04/04 07:24:53;;;;;;;;;;;18.40;60.30;;;;;;5050878;28;19969;-75
2021/04/04 07:27:22;;;;;;;;;;;18.30;60.30;;;;;;5052217;28;20011;-75
2021/04/04 07:30:05;;;;;;;;;;;18.40;60.30;;;;;;5057071;28;19913;-77
2021/04/04 07:32:35;;;;;;;;;;;18.30;60.30;;;;;;5033719;28;19913;-75
2021/04/04 07:35:20;;;;;;;;;;;18.40;60.30;;;;;;5053814;28;20003;-75
2021/04/04 07:37:48;;;;;;;;;;;18.40;60.30;;;;;;5031515;28;19923;-75
2021/04/04 07:40:19;;;;;;;;;;;18.40;60.30;;;;;;5036550;28;19921;-75
2021/04/04 07:42:49;;;;;;;;;;;18.40;60.30;;;;;;5031046;28;19929;-75
2021/04/04 07:45:31;;;;;;;;;;;18.40;60.30;;;;;;5050824;28;19917;-75
2021/04/04 07:48:22;;;;;;;;;;;18.40;60.30;;;;;;5051181;28;20332;-75
2021/04/04 07:50:57;;;;;;;;;;;18.40;60.20;;;;;;5051120;28;19913;-75
2021/04/04 07:53:22;;;;;;;;;;;18.40;60.20;;;;;;5051864;28;21294;-75
2021/04/04 07:55:48;;;;;;;;;;;18.40;60.20;;;;;;5051779;28;19917;-75
2021/04/04 07:58:22;;;;;;;;;;;18.40;60.20;;;;;;5066400;28;19966;-75
2021/04/04 08:01:08;;;;;;;;;;;18.40;60.20;;;;;;5060722;28;19917;-76
2021/04/04 08:03:57;;;;;;;;;;;18.40;60.20;;;;;;5036024;28;20346;-75
2021/04/04 08:06:27;;;;;;;;;;;18.40;60.10;;;;;;5025911;28;20374;-75
2021/04/04 08:09:17;;;;;;;;;;;18.40;60.10;;;;;;5031285;28;19967;-75
2021/04/04 08:11:50;;;;;;;;;;;18.40;60.10;;;;;;5023574;28;19913;-75
2021/04/04 08:14:34;;;;;;;;;;;18.40;60.10;;;;;;5034935;28;20385;-75
2021/04/04 08:17:00;;;;;;;;;;;18.50;60.10;;;;;;5056247;28;20386;-75
2021/04/04 08:19:26;;;;;;;;;;;18.40;60.10;;;;;;5052124;28;19917;-77
2021/04/04 08:21:56;;;;;;;;;;;18.40;60.00;;;;;;5041791;28;19979;-75
2021/04/04 08:24:31;;;;;;;;;;;18.50;60.00;;;;;;5027781;28;19920;-75
2021/04/04 08:27:02;;;;;;;;;;;18.50;59.90;;;;;;5062848;28;19936;-76
2021/04/04 08:29:54;;;;;;;;;;;18.50;59.90;;;;;;5046472;28;19995;-74
2021/04/04 08:32:25;;;;;;;;;;;18.50;59.80;;;;;;5036912;28;19916;-76
2021/04/04 08:34:55;;;;;;;;;;;18.60;59.70;;;;;;5024469;28;19917;-75
2021/04/04 08:37:30;;;;;;;;;;;18.60;59.80;;;;;;5043813;28;19920;-75
2021/04/04 08:39:57;;;;;;;;;;;18.60;59.70;;;;;;5046719;28;20030;-76
2021/04/04 08:42:23;;;;;;;;;;;18.60;59.70;;;;;;5034107;28;19953;-75
2021/04/04 08:44:51;;;;;;;;;;;18.60;59.60;;;;;;5048157;28;19913;-78
2021/04/04 08:47:31;;;;;;;;;;;18.60;59.60;;;;;;5031143;28;19917;-76
2021/04/04 08:49:59;;;;;;;;;;;18.70;59.40;;;;;;5046821;28;19920;-75
2021/04/04 08:52:36;;;;;;;;;;;18.70;59.40;;;;;;5031544;28;19913;-76
2021/04/04 08:55:01;;;;;;;;;;;18.70;59.40;;;;;;5060134;28;20317;-75
2021/04/04 08:57:33;;;;;;;;;;;18.70;59.30;;;;;;5035878;28;20379;-76
2021/04/04 08:59:59;;;;;;;;;;;18.70;59.20;;;;;;5053152;28;19962;-76
2021/04/04 09:02:26;;;;;;;;;;;18.70;59.20;;;;;;5048148;28;20332;-75
2021/04/04 09:04:57;;;;;;;;;;;18.70;59.10;;;;;;5020557;28;19913;-76
2021/04/04 09:07:22;;;;;;;;;;;18.80;59.00;;;;;;5024897;28;20406;-76
2021/04/04 09:09:49;;;;;;;;;;;18.80;59.00;;;;;;5043428;28;20011;-77
2021/04/04 09:12:15;;;;;;;;;;;18.80;58.90;;;;;;5047771;28;19963;-75
2021/04/04 09:14:42;;;;;;;;;;;18.80;58.80;;;;;;5033100;28;19916;-76
2021/04/04 09:17:17;;;;;;;;;;;18.80;58.80;;;;;;5033289;28;19920;-75
2021/04/04 09:19:45;;;;;;;;;;;18.80;58.80;;;;;;5024374;28;20309;-76
2021/04/04 09:22:14;;;;;;;;;;;18.80;58.70;;;;;;5040106;28;19921;-75
2021/04/04 09:24:47;;;;;;;;;;;18.80;58.80;;;;;;5066188;28;20015;-76
2021/04/04 09:27:16;;;;;;;;;;;18.80;58.90;;;;;;5032025;28;19912;-75
2021/04/04 09:29:43;;;;;;;;;;;18.80;58.90;;;;;;5028247;28;19917;-76
2021/04/04 09:32:15;;;;;;;;;;;18.80;58.90;;;;;;5048990;28;19999;-75
2021/04/04 09:34:42;;;;;;;;;;;18.80;59.00;;;;;;5030755;28;19971;-76
2021/04/04 09:37:07;;;;;;;;;;;18.80;59.00;;;;;;5030614;28;19913;-75
2021/04/04 09:39:35;;;;;;;;;;;18.80;59.00;;;;;;5046080;28;20733;-76
2021/04/04 09:42:01;;;;;;;;;;;18.70;59.00;;;;;;5033887;28;20003;-76
2021/04/04 09:44:30;;;;;;;;;;;18.80;59.00;;;;;;5047625;28;20039;-76
2021/04/04 09:46:59;;;;;;;;;;;18.80;59.00;;;;;;5049554;28;19913;-76
2021/04/04 09:49:43;;;;;;;;;;;18.80;59.00;;;;;;5028394;28;19920;-76
2021/04/04 09:52:27;;;;;;;;;;;18.70;59.00;;;;;;5044753;28;19983;-75
2021/04/04 09:55:02;;;;;;;;;;;18.80;58.90;;;;;;5027886;28;20347;-76
2021/04/04 09:57:27;;;;;;;;;;;18.80;58.90;;;;;;5058286;28;19917;-76
2021/04/04 09:59:53;;;;;;;;;;;18.80;58.80;;;;;;5046610;28;20404;-76
2021/04/04 10:02:35;;;;;;;;;;;18.80;58.70;;;;;;5050681;28;20004;-76
2021/04/04 10:05:01;;;;;;;;;;;18.80;58.70;;;;;;5050378;28;19921;-76
2021/04/04 10:07:27;;;;;;;;;;;18.80;58.60;;;;;;5030823;28;20277;-76
2021/04/04 10:09:53;;;;;;;;;;;18.90;58.60;;;;;;5043365;28;20338;-77
2021/04/04 10:12:19;;;;;;;;;;;18.90;58.50;;;;;;5049780;28;19959;-77
2021/04/04 10:15:00;;;;;;;;;;;18.90;58.50;;;;;;5032616;28;19919;-76
2021/04/04 10:17:26;;;;;;;;;;;18.90;58.50;;;;;;5052100;28;19920;-76
2021/04/04 10:19:53;;;;;;;;;;;18.90;58.50;;;;;;5048346;28;20432;-78
2021/04/04 10:22:18;;;;;;;;;;;18.90;58.40;;;;;;5025067;28;20008;-76
2021/04/04 10:24:44;;;;;;;;;;;18.90;58.50;;;;;;5031481;28;20449;-76
2021/04/04 10:27:29;;;;;;;;;;;18.80;58.50;;;;;;5023856;28;20003;-76
2021/04/04 10:30:04;;;;;;;;;;;18.90;58.50;;;;;;5032933;28;19959;-76
2021/04/04 10:32:29;;;;;;;;;;;18.90;58.40;;;;;;5044389;28;20385;-76
2021/04/04 10:34:55;;;;;;;;;;;18.90;58.30;;;;;;5032681;28;19913;-76
2021/04/04 10:37:28;;;;;;;;;;;18.90;58.40;;;;;;5030276;28;20327;-76
2021/04/04 10:39:54;;;;;;;;;;;18.90;58.30;;;;;;5056213;28;20385;-76
2021/04/04 10:42:21;;;;;;;;;;;18.90;58.40;;;;;;5031990;28;19997;-77
2021/04/04 10:45:05;;;;;;;;;;;18.90;58.40;;;;;;5032314;28;19913;-76
2021/04/04 10:47:31;;;;;;;;;;;18.90;58.40;;;;;;5044970;28;20287;-75
2021/04/04 10:49:57;;;;;;;;;;;18.90;58.40;;;;;;5057193;28;19916;-76
2021/04/04 10:52:22;;;;;;;;;;;18.90;58.50;;;;;;5048746;28;19943;-77
2021/04/04 10:54:48;;;;;;;;;;;18.80;58.40;;;;;;5049023;28;19913;-77
2021/04/04 10:57:13;;;;;;;;;;;18.80;58.40;;;;;;5049769;28;19920;-77
2021/04/04 10:59:39;;;;;;;;;;;18.90;58.40;;;;;;5040973;28;19916;-78
2021/04/04 11:02:05;;;;;;;;;;;18.90;58.30;;;;;;5024540;28;19971;-76
2021/04/04 11:04:31;;;;;;;;;;;18.90;58.30;;;;;;5039164;28;19975;-76
2021/04/04 11:06:58;;;;;;;;;;;18.90;58.20;;;;;;5050353;28;19983;-76
2021/04/04 11:09:30;;;;;;;;;;;19.00;58.10;;;;;;5026577;28;19917;-76
2021/04/04 11:11:59;;;;;;;;;;;19.00;58.10;;;;;;5050731;28;19959;-76
2021/04/04 11:14:25;;;;;;;;;;;19.00;58.10;;;;;;5032646;28;19960;-76
2021/04/04 11:16:56;;;;;;;;;;;18.90;58.20;;;;;;5041049;28;19917;-76
2021/04/04 11:19:23;;;;;;;;;;;19.00;58.20;;;;;;5027968;28;19948;-76
2021/04/04 11:21:53;;;;;;;;;;;19.00;58.20;;;;;;5033443;28;19986;-76
2021/04/04 11:24:27;;;;;;;;;;;19.00;58.20;;;;;;5037034;28;19912;-76
2021/04/04 11:26:55;;;;;;;;;;;18.90;58.20;;;;;;5054505;28;19913;-76
2021/04/04 11:29:23;;;;;;;;;;;18.90;58.30;;;;;;5049818;28;20385;-76
2021/04/04 11:31:59;;;;;;;;;;;18.90;58.30;;;;;;5037386;28;19917;-76
2021/04/04 11:34:30;;;;;;;;;;;18.90;58.30;;;;;;5054390;28;19920;-76
2021/04/04 11:37:04;;;;;;;;;;;18.90;58.30;;;;;;5050156;28;19963;-76
2021/04/04 11:39:30;;;;;;;;;;;18.90;58.20;;;;;;5027471;28;19924;-76
2021/04/04 11:41:56;;;;;;;;;;;18.90;58.20;;;;;;5018948;28;19917;-76
2021/04/04 11:44:31;;;;;;;;;;;18.90;58.20;;;;;;5049488;28;19990;-77
2021/04/04 11:47:20;;;;;;;;;;;18.90;58.30;;;;;;5036098;28;20003;-76
2021/04/04 11:49:48;;;;;;;;;;;18.90;58.30;;;;;;5039853;28;19913;-76
2021/04/04 11:52:16;;;;;;;;;;;18.90;58.20;;;;;;5030251;28;19968;-76
2021/04/04 11:54:45;;;;;;;;;;;18.90;58.30;;;;;;5051497;28;19913;-76
2021/04/04 11:57:21;;;;;;;;;;;18.90;58.30;;;;;;5043506;28;19959;-76
2021/04/04 11:59:53;;;;;;;;;;;18.90;58.30;;;;;;5026995;28;19928;-76
2021/04/04 12:02:20;;;;;;;;;;;18.90;58.30;;;;;;5037021;28;19912;-76
2021/04/04 12:04:58;;;;;;;;;;;18.90;58.30;;;;;;5031966;28;19913;-75
2021/04/04 12:07:25;;;;;;;;;;;18.80;58.30;;;;;;5017660;28;20004;-76
2021/04/04 12:10:00;;;;;;;;;;;18.80;58.40;;;;;;5024329;28;19928;-76
2021/04/04 12:12:32;;;;;;;;;;;18.90;58.30;;;;;;5034096;28;20358;-76
2021/04/04 12:15:07;;;;;;;;;;;18.90;58.40;;;;;;5049601;28;19921;-75
2021/04/04 12:17:41;;;;;;;;;;;18.80;58.30;;;;;;5065964;28;20019;-77
2021/04/04 12:20:08;;;;;;;;;;;18.90;58.30;;;;;;5049841;28;19917;-76
2021/04/04 12:22:38;;;;;;;;;;;18.80;58.30;;;;;;5020589;28;19925;-76
2021/04/04 12:25:05;;;;;;;;;;;18.80;58.40;;;;;;5029882;28;20274;-76
2021/04/04 12:27:30;;;;;;;;;;;18.80;58.40;;;;;;5035508;28;19962;-76
2021/04/04 12:29:59;;;;;;;;;;;18.80;58.40;;;;;;5032335;28;19913;-76
2021/04/04 12:32:32;;;;;;;;;;;18.80;58.40;;;;;;5044313;28;19971;-76
2021/04/04 12:34:59;;;;;;;;;;;18.90;58.40;;;;;;5045623;28;20385;-76
2021/04/04 12:37:26;;;;;;;;;;;18.80;58.30;;;;;;5033111;28;20323;-76
2021/04/04 12:39:52;;;;;;;;;;;18.80;58.30;;;;;;5020889;28;19967;-76
2021/04/04 12:42:19;;;;;;;;;;;18.80;58.40;;;;;;5060346;28;19920;-76
2021/04/04 12:44:46;;;;;;;;;;;18.80;58.30;;;;;;5029668;28;19932;-76
2021/04/04 12:47:12;;;;;;;;;;;18.90;58.40;;;;;;5017543;28;20248;-76
2021/04/04 12:49:38;;;;;;;;;;;18.80;58.30;;;;;;5046755;28;19913;-76
2021/04/04 12:52:05;;;;;;;;;;;18.90;58.30;;;;;;5048599;28;19916;-76
2021/04/04 12:54:30;;;;;;;;;;;18.90;58.30;;;;;;5032758;28;20294;-77
2021/04/04 12:56:56;;;;;;;;;;;18.80;58.30;;;;;;5056040;28;19919;-76
2021/04/04 12:59:22;;;;;;;;;;;18.90;58.30;;;;;;5037074;28;19917;-76
2021/04/04 13:01:48;;;;;;;;;;;18.80;58.30;;;;;;5046266;28;19917;-77
2021/04/04 13:04:18;;;;;;;;;;;18.90;58.30;;;;;;5031533;28;19916;-77
2021/04/04 13:06:44;;;;;;;;;;;18.80;58.30;;;;;;5049094;28;19995;-76
2021/04/04 13:09:10;;;;;;;;;;;18.90;58.30;;;;;;5031689;28;20322;-75
2021/04/04 13:11:35;;;;;;;;;;;18.90;58.20;;;;;;5051166;28;19913;-76
2021/04/04 13:14:01;;;;;;;;;;;18.90;58.20;;;;;;5037600;28;19959;-76
2021/04/04 13:16:27;;;;;;;;;;;18.90;58.20;;;;;;5034585;28;20354;-76
2021/04/04 13:18:52;;;;;;;;;;;18.90;58.20;;;;;;5032402;28;19947;-76
2021/04/04 13:21:19;;;;;;;;;;;18.90;58.20;;;;;;5034111;28;20030;-76
2021/04/04 13:23:46;;;;;;;;;;;18.90;58.30;;;;;;5016698;28;19913;-75
2021/04/04 13:26:16;;;;;;;;;;;18.90;58.30;;;;;;5049581;28;19912;-76
2021/04/04 13:28:42;;;;;;;;;;;18.80;58.20;;;;;;5026207;28;19982;-77
2021/04/04 13:31:28;;;;;;;;;;;18.90;58.30;;;;;;5055439;28;20358;-76
2021/04/04 13:34:02;;;;;;;;;;;18.90;58.20;;;;;;5031788;28;20441;-76
2021/04/04 13:36:28;;;;;;;;;;;18.90;58.20;;;;;;5039231;28;19919;-76
2021/04/04 13:38:54;;;;;;;;;;;18.90;58.20;;;;;;5047172;28;19925;-76
2021/04/04 13:41:19;;;;;;;;;;;18.90;58.30;;;;;;5023613;28;19917;-76
2021/04/04 13:43:45;;;;;;;;;;;18.90;58.20;;;;;;5049899;28;19925;-76
2021/04/04 13:46:12;;;;;;;;;;;18.90;58.20;;;;;;5066033;28;19912;-76
2021/04/04 13:48:40;;;;;;;;;;;18.90;58.20;;;;;;5024200;28;19966;-76
2021/04/04 13:51:17;;;;;;;;;;;18.90;58.20;;;;;;5030953;28;19920;-76
2021/04/04 13:53:43;;;;;;;;;;;18.90;58.20;;;;;;5033386;28;19920;-76
2021/04/04 13:56:12;;;;;;;;;;;18.80;58.20;;;;;;5033035;28;19913;-75
2021/04/04 13:58:39;;;;;;;;;;;18.90;58.20;;;;;;5018790;28;20355;-76
2021/04/04 14:01:26;;;;;;;;;;;18.90;58.10;;;;;;5049466;28;19917;-76
2021/04/04 14:03:51;;;;;;;;;;;18.90;58.20;;;;;;5033007;28;20398;-75
2021/04/04 14:06:17;;;;;;;;;;;18.90;58.20;;;;;;5025311;28;19913;-76
2021/04/04 14:08:43;;;;;;;;;;;18.90;58.20;;;;;;5030511;28;20003;-76
2021/04/04 14:11:10;;;;;;;;;;;18.90;58.20;;;;;;5016322;28;19920;-76
2021/04/04 14:13:40;;;;;;;;;;;18.90;58.20;;;;;;5034084;28;20322;-75
2021/04/04 14:16:06;;;;;;;;;;;18.90;58.20;;;;;;5031800;28;20003;-75
2021/04/04 14:18:33;;;;;;;;;;;18.90;58.20;;;;;;5015561;28;20000;-76
2021/04/04 14:20:58;;;;;;;;;;;18.90;58.20;;;;;;5024221;28;19953;-75
2021/04/04 14:23:24;;;;;;;;;;;18.90;58.20;;;;;;5031330;28;19917;-76
2021/04/04 14:25:50;;;;;;;;;;;18.90;58.10;;;;;;5016098;28;19917;-76
2021/04/04 14:28:15;;;;;;;;;;;18.90;58.20;;;;;;5054543;28;19913;-76
2021/04/04 14:30:52;;;;;;;;;;;18.90;58.20;;;;;;5037774;28;19920;-76